Data for 06/14/2007

Time Sea-Level Adjusted Pressure Absolute Pressure Temperature Relative Humidity Dew Point   
(mb) (inHg) (mb) (inHg) (C) (F) (%) (C) (F)
00:05 1018 30.06 848 25.04 15 58.9 59 7.1 44.8
00:10 1019 30.09 848 25.04 14.6 58.3 60 6.9 44.4
00:15 1019 30.09 848 25.04 14.5 58.1 59 6.7 44.1
00:20 1019 30.09 848 25.04 14.5 58.2 59 6.7 44.1
00:25 1019 30.09 848 25.04 14.5 58 59 6.7 44.1
00:30 1019 30.09 848 25.04 14.2 57.6 61 6.8 44.3
00:35 1019 30.09 848 25.04 14.1 57.3 60 6.5 43.7
00:40 1019 30.09 848 25.04 13.9 57.1 59 6.2 43.2
00:45 1019 30.09 848 25.04 13.9 56.9 60 6.3 43.3
00:50 1019 30.09 848 25.04 13.7 56.7 61 6.4 43.5
00:55 1019 30.09 848 25.04 13.4 56 63 6.4 43.5
01:00 1019 30.09 848 25.04 12.9 55.2 66 6.7 44
01:05 1019 30.09 848 25.04 12.4 54.4 68 6.7 44.1
01:10 1019 30.09 848 25.04 12 53.7 71 6.9 44.4
01:15 1019 30.09 848 25.04 11.7 53.1 71 6.6 43.8
01:20 1019 30.09 848 25.04 11.8 53.2 70 6.4 43.6
01:25 1019 30.09 848 25.04 12 53.6 69 6.4 43.6
01:30 1019 30.09 848 25.04 12 53.6 69 6.5 43.8
01:35 1019 30.09 848 25.04 12 53.7 69 6.5 43.7
01:40 1019 30.09 848 25.04 12.1 53.8 69 6.6 44
01:45 1019 30.09 848 25.04 12 53.5 68 6.3 43.3
01:50 1019 30.09 848 25.04 12.1 53.9 67 6.3 43.4
01:55 1019 30.09 848 25.04 12 53.6 69 6.6 43.8
02:00 1019 30.09 848 25.04 11.9 53.5 68 6.2 43.2
02:05 1019 30.09 848 25.04 11.9 53.5 69 6.4 43.5
02:10 1019 30.09 848 25.04 11.9 53.4 69 6.5 43.6
02:15 1019 30.09 848 25.04 11.6 52.9 71 6.5 43.7
02:20 1019 30.09 848 25.04 11.6 52.9 69 6.1 43.1
02:25 1019 30.09 848 25.04 11.9 53.4 68 6.3 43.4
02:30 1019 30.09 848 25.04 11.8 53.2 69 6.4 43.5
02:35 1019 30.09 848 25.04 11.7 53.1 69 6.4 43.5
02:40 1019 30.09 848 25.04 11.8 53.3 69 6.4 43.5
02:45 1019 30.09 848 25.04 11.8 53.3 69 6.4 43.5
02:50 1019 30.09 848 25.04 11.9 53.3 69 6.5 43.7
02:55 1019 30.09 848 25.04 12 53.6 68 6.3 43.4
03:00 1019 30.09 848 25.04 12.2 54 67 6.4 43.5
03:05 1019 30.09 848 25.04 12.4 54.2 66 6.3 43.3
03:10 1019 30.09 848 25.04 12.5 54.5 66 6.3 43.4
03:15 1019 30.09 848 25.04 12.6 54.6 65 6.3 43.3
03:20 1019 30.09 848 25.04 12.6 54.7 66 6.4 43.5
03:25 1019 30.09 848 25.04 12.5 54.5 67 6.5 43.8
03:30 1019 30.09 848 25.04 12.1 53.9 69 6.7 44
03:35 1019 30.09 848 25.04 12.1 53.7 69 6.5 43.7
03:40 1019 30.09 848 25.04 12 53.6 69 6.6 43.8
03:45 1019 30.09 848 25.04 11.9 53.5 70 6.6 43.9
03:50 1019 30.09 848 25.04 11.6 52.9 71 6.6 43.9
03:55 1019 30.09 848 25.04 11.5 52.7 71 6.5 43.8
04:00 1019 30.09 848 25.04 11.6 52.9 71 6.6 43.9
04:05 1019 30.09 848 25.04 11.6 52.9 71 6.7 44
04:10 1019 30.09 848 25.04 11.6 52.8 72 6.7 44
04:15 1019 30.09 848 25.04 11.6 52.8 72 6.6 44
04:20 1019 30.09 848 25.04 11.6 52.9 71 6.5 43.7
04:25 1019 30.09 848 25.04 11.7 53.1 72 6.8 44.2
04:30 1019 30.09 848 25.04 11.8 53.2 72 6.9 44.4
04:35 1019 30.09 848 25.04 11.7 53 73 6.9 44.5
04:40 1019 30.09 848 25.04 11.5 52.7 73 6.8 44.2
04:45 1019 30.09 848 25.04 11.4 52.4 74 6.9 44.4
04:50 1019 30.09 848 25.04 11.2 52.2 74 6.7 44.1
04:55 1019 30.09 848 25.04 11.2 52.2 73 6.7 44
05:00 1018 30.06 848 25.04 11.2 52.2 74 6.8 44.2
05:05 1018 30.06 848 25.04 11.2 52.1 74 6.7 44.1
05:10 1019 30.09 848 25.04 11.2 52.1 73 6.6 43.9
05:15 1018 30.06 848 25.04 11.1 52 74 6.6 44
05:20 1019 30.09 848 25.04 11.1 52 74 6.7 44
05:25 1019 30.09 848 25.04 11.1 52 74 6.7 44
05:30 1018 30.06 848 25.04 11.1 52.1 74 6.6 44
05:35 1019 30.09 848 25.04 11.2 52.1 74 6.7 44.1
05:40 1019 30.09 848 25.04 11.2 52.2 73 6.6 43.9
05:45 1019 30.09 848 25.04 11.4 52.5 73 6.7 44.1
05:50 1019 30.09 848 25.04 11.5 52.8 72 6.8 44.2
05:55 1019 30.09 848 25.04 11.7 53 72 6.9 44.4
06:00 1019 30.09 848 25.04 11.8 53.2 73 7.1 44.7
06:05 1019 30.09 848 25.04 11.9 53.4 72 7.1 44.8
06:10 1019 30.09 848 25.04 11.9 53.5 72 7.2 44.9
06:15 1019 30.09 848 25.04 11.9 53.4 73 7.3 45.1
06:20 1019 30.09 848 25.04 11.9 53.4 74 7.4 45.3
06:25 1019 30.09 848 25.04 11.7 53.1 75 7.4 45.3
06:30 1019 30.09 848 25.04 11.5 52.6 76 7.3 45.2
06:35 1019 30.09 848 25.04 11.5 52.7 76 7.5 45.5
06:40 1019 30.09 848 25.04 11.6 52.8 76 7.6 45.6
06:45 1019 30.09 848 25.04 11.6 53 76 7.6 45.6
06:50 1019 30.09 848 25.04 11.7 53.1 76 7.6 45.7
06:55 1019 30.09 848 25.04 11.7 53 77 7.8 46
07:00 1019 30.09 848 25.04 11.5 52.8 78 7.9 46.2
07:05 1019 30.09 848 25.04 11.6 52.9 78 7.9 46.2
07:10 1019 30.09 848 25.04 11.4 52.5 79 8 46.4
07:15 1019 30.09 848 25.04 11.2 52.1 79 7.7 45.9
07:20 1019 30.09 848 25.04 11 51.9 80 7.7 45.8
07:25 1019 30.09 848 25.04 11.1 52 80 7.8 46
07:30 1019 30.09 848 25.04 11 51.8 83 8.2 46.8
07:35 1019 30.09 848 25.04 10.8 51.4 84 8.3 46.9
07:40 1019 30.09 848 25.04 10.8 51.4 86 8.5 47.3
07:45 1019 30.09 848 25.04 10.8 51.5 86 8.5 47.3
07:50 1019 30.09 848 25.04 10.7 51.2 86 8.5 47.2
07:55 1019 30.09 848 25.04 11 51.9 85 8.6 47.5
08:00 1019 30.09 848 25.04 11.2 52.1 85 8.7 47.7
08:05 1019 30.09 848 25.04 10.9 51.6 86 8.6 47.4
08:10 1019 30.09 848 25.04 11 51.7 86 8.7 47.6
08:15 1019 30.09 848 25.04 11.3 52.3 84 8.7 47.7
08:20 1019 30.09 848 25.04 11.3 52.4 85 9 48.1
08:25 1019 30.09 848 25.04 11.4 52.4 85 8.9 48.1
08:30 1019 30.09 848 25.04 11.2 52.1 86 8.9 48.1
08:35 1019 30.09 848 25.04 11.1 52 87 9 48.1
08:40 1019 30.09 848 25.04 10.8 51.5 89 9.1 48.4
08:45 1019 30.09 848 25.04 10.8 51.5 89 9.1 48.4
08:50 1019 30.09 848 25.04 10.7 51.3 90 9.1 48.4
08:55 1019 30.09 848 25.04 10.9 51.6 90 9.2 48.6
09:00 1019 30.09 848 25.04 10.9 51.7 89 9.2 48.5
09:05 1019 30.09 848 25.04 11 51.7 89 9.2 48.6
09:10 1019 30.09 848 25.04 11.2 52.2 88 9.4 48.9
09:15 1019 30.09 848 25.04 11.3 52.3 88 9.4 49
09:20 1019 30.09 848 25.04 11.5 52.7 87 9.5 49
09:25 1019 30.09 848 25.04 11.5 52.7 87 9.4 48.9
09:30 1019 30.09 849 25.07 11.2 52.2 87 9.2 48.6
09:35 1020 30.12 849 25.07 11.2 52.2 87 9.2 48.5
09:40 1019 30.09 849 25.07 11.2 52.1 87 9 48.3
09:45 1019 30.09 848 25.04 11.1 52 86 8.9 48.1
09:50 1019 30.09 848 25.04 11 51.7 87 8.9 48
09:55 1019 30.09 848 25.04 11 51.7 85 8.6 47.5
10:00 1019 30.09 848 25.04 11 51.8 87 8.9 48
10:05 1019 30.09 848 25.04 11.4 52.4 85 8.9 48.1
10:10 1019 30.09 848 25.04 11.2 52.2 85 8.8 47.8
10:15 1019 30.09 848 25.04 11.2 52.2 85 8.9 47.9
10:20 1019 30.09 848 25.04 11.5 52.7 84 8.9 48
10:25 1019 30.09 848 25.04 11.7 53.1 83 9 48.2
10:30 1019 30.09 848 25.04 12 53.6 83 9.2 48.6
10:35 1018 30.06 848 25.04 12.7 54.9 79 9.3 48.7
10:40 1018 30.06 848 25.04 13.2 55.7 77 9.3 48.8
10:45 1018 30.06 848 25.04 13.5 56.3 74 9 48.1
10:50 1018 30.06 848 25.04 13.3 55.9 77 9.4 48.9
10:55 1018 30.06 847 25.01 12.8 55.1 81 9.6 49.3
11:00 1018 30.06 847 25.01 12.6 54.7 82 9.6 49.3
11:05 1018 30.06 847 25.01 13 55.4 79 9.5 49
11:10 1018 30.06 847 25.01 12.9 55.3 78 9.3 48.7
11:15 1018 30.06 847 25.01 13 55.4 78 9.3 48.8
11:20 1018 30.06 847 25.01 13.5 56.2 78 9.6 49.4
11:25 1018 30.06 847 25.01 13.4 56.1 78 9.6 49.2
11:30 1018 30.06 847 25.01 13.1 55.6 76 9.1 48.3
11:35 1018 30.06 847 25.01 13.1 55.6 75 8.8 47.8
11:40 1018 30.06 847 25.01 13.3 55.9 79 9.8 49.7
11:45 1018 30.06 847 25.01 13.1 55.5 81 9.8 49.7
11:50 1018 30.06 847 25.01 13.4 56.2 78 9.7 49.5
11:55 1017 30.03 847 25.01 14.6 58.3 72 9.6 49.3
12:00 1017 30.03 847 25.01 15.1 59.2 67 9.1 48.3
12:05 1017 30.03 847 25.01 15 59 69 9.5 49.1
12:10 1017 30.03 847 25.01 16 60.9 63 9.1 48.4
12:15 1017 30.03 847 25.01 16.4 61.6 62 9.1 48.4
12:20 1017 30.03 847 25.01 16.4 61.5 62 9.2 48.5
12:25 1017 30.03 847 25.01 17.2 62.9 58 9 48.3
12:30 1017 30.03 847 25.01 17.9 64.1 56 9 48.2
12:35 1017 30.03 847 25.01 18.1 64.5 56 9.2 48.6
12:40 1017 30.03 846 24.98 18 64.5 57 9.6 49.3
12:45 1017 30.03 846 24.98 18 64.3 58 9.8 49.6
12:50 1017 30.03 846 24.98 17 62.6 59 9.1 48.3
12:55 1017 30.03 846 24.98 18 64.4 56 9.2 48.5
13:00 1017 30.03 846 24.98 17.8 64.1 61 10.3 50.5
13:05 1017 30.03 846 24.98 17.9 64.2 59 9.9 49.9
13:10 1017 30.03 846 24.98 17.4 63.3 60 9.5 49.2
13:15 1017 30.03 846 24.98 17.7 63.9 59 9.8 49.7
13:20 1017 30.03 846 24.98 16.8 62.2 64 10 50.1
13:25 1017 30.03 846 24.98 16.4 61.6 63 9.4 48.9
13:30 1017 30.03 846 24.98 16.6 62 63 9.7 49.5
13:35 1017 30.03 846 24.98 17.1 62.7 62 9.8 49.7
13:40 1017 30.03 846 24.98 17 62.6 62 9.8 49.7
13:45 1017 30.03 846 24.98 17.3 63.1 58 9.1 48.4
13:50 1017 30.03 846 24.98 16.8 62.3 63 9.8 49.6
13:55 1017 30.03 846 24.98 16.7 62.1 61 9.3 48.7
14:00 1017 30.03 846 24.98 17.3 63.2 60 9.5 49.1
14:05 1017 30.03 846 24.98 17.5 63.5 58 9.4 48.9
14:10 1017 30.03 846 24.98 17.8 64 54 8.5 47.4
14:15 1017 30.03 846 24.98 18.4 65 53 8.9 47.9
14:20 1017 30.03 846 24.98 18.3 64.9 54 8.9 48
14:25 1017 30.03 846 24.98 18.6 65.5 53 9 48.3
14:30 1017 30.03 846 24.98 19.4 66.9 50 8.9 48
14:35 1017 30.03 846 24.98 19 66.1 50 8.3 47
14:40 1017 30.03 846 24.98 18.9 66 50 8.3 46.9
14:45 1017 30.03 846 24.98 18.9 66 50 8.3 47
14:50 1017 30.03 846 24.98 18.9 65.9 50 8.3 47
14:55 1017 30.03 846 24.98 18.9 66.1 49 8.1 46.6
15:00 1017 30.03 846 24.98 18.9 66.1 52 8.9 48
15:05 1016 30 846 24.98 18.9 66.1 53 9.4 48.8
15:10 1016 30 846 24.98 18.7 65.7 53 9.1 48.3
15:15 1016 30 846 24.98 19.1 66.3 51 8.8 47.8
15:20 1016 30 845 24.95 18.7 65.7 52 8.8 47.8
15:25 1016 30 845 24.95 19.1 66.3 50 8.4 47.1
15:30 1016 30 845 24.95 20 68 46 8.3 46.9
15:35 1016 30 845 24.95 20.2 68.3 47 8.7 47.7
15:40 1016 30 845 24.95 20.7 69.2 45 8.3 47
15:45 1016 30 845 24.95 20.9 69.6 45 8.7 47.6
15:50 1016 30 845 24.95 20.3 68.5 49 9.2 48.6
15:55 1016 30 845 24.95 18.6 65.5 52 8.6 47.4
16:00 1016 30 845 24.95 18.4 65.2 51 8.2 46.8
16:05 1016 30 845 24.95 18.6 65.5 51 8.4 47.1
16:10 1016 30 845 24.95 18.9 66 51 8.6 47.5
16:15 1016 30 845 24.95 19.5 67.2 48 8.2 46.8
16:20 1016 30 845 24.95 20.2 68.3 47 8.7 47.7
16:25 1016 30 845 24.95 20.1 68.1 48 8.8 47.9
16:30 1016 30 845 24.95 20.7 69.2 46 8.8 47.9
16:35 1016 30 845 24.95 20.6 69.2 46 8.9 48.1
16:40 1016 30 845 24.95 20.1 68.2 48 8.9 48
16:45 1016 30 845 24.95 20.5 68.8 46 8.6 47.5
16:50 1016 30 845 24.95 21.1 69.9 45 8.8 47.9
16:55 1016 30 845 24.95 19.5 67.2 49 8.6 47.4
17:00 1016 30 845 24.95 19.5 67.1 48 8.4 47.1
17:05 1016 30 845 24.95 20.4 68.7 45 8.1 46.6
17:10 1016 30 845 24.95 21 69.9 43 8.2 46.7
17:15 1016 30 845 24.95 21 69.7 44 8.4 47.2
17:20 1016 30 845 24.95 21.3 70.3 42 8 46.4
17:25 1016 30 845 24.95 21.3 70.3 43 8.2 46.7
17:30 1016 30 845 24.95 20.7 69.3 43 7.7 45.8
17:35 1016 30 845 24.95 21.1 70 43 8.1 46.6
17:40 1016 30 845 24.95 21.2 70.1 42 7.8 46
17:45 1016 30 845 24.95 21 69.9 44 8.3 47
17:50 1016 30 845 24.95 20.7 69.2 43 7.9 46.2
17:55 1016 30 845 24.95 21.2 70.1 43 8.1 46.5
18:00 1016 30 845 24.95 21.2 70.1 42 8.1 46.6
18:05 1016 30 845 24.95 21.3 70.3 41 7.8 46
18:10 1016 30 845 24.95 21.6 70.9 40 7.7 45.9
18:15 1016 30 845 24.95 21.9 71.5 40 7.9 46.2
18:20 1016 30 845 24.95 21.8 71.2 41 8 46.4
18:25 1016 30 845 24.95 21.3 70.4 40 7.3 45.2
18:30 1016 30 845 24.95 21.1 70 42 7.7 45.8
18:35 1016 30 845 24.95 20.7 69.2 41 7.2 44.9
18:40 1016 30 845 24.95 21.4 70.5 39 7 44.5
18:45 1016 30 845 24.95 21.7 71 40 7.8 46.1
18:50 1016 30 845 24.95 21.4 70.5 40 7.5 45.6
18:55 1016 30 845 24.95 20.9 69.7 41 7.5 45.5
19:00 1016 30 845 24.95 20.7 69.2 42 7.6 45.7
19:05 1016 30 845 24.95 20.6 69 43 7.6 45.7
19:10 1016 30 845 24.95 20.5 68.9 44 7.8 46.1
19:15 1016 30 845 24.95 20.7 69.2 43 7.8 46
19:20 1016 30 845 24.95 20.7 69.3 43 7.7 45.9
19:25 1016 30 845 24.95 20.8 69.5 42 7.7 45.9
19:30 1016 30 845 24.95 20.6 69 46 8.6 47.4
19:35 1016 30 845 24.95 20.3 68.6 46 8.5 47.3
19:40 1016 30 845 24.95 20.3 68.6 46 8.5 47.2
19:45 1016 30 845 24.95 20.2 68.3 48 8.8 47.9
19:50 1016 30 845 24.95 20.1 68.2 48 8.9 48
19:55 1016 30 846 24.98 20.2 68.4 49 9.3 48.8
20:00 1016 30 846 24.98 20.1 68.1 48 9 48.2
20:05 1016 30 846 24.98 19.7 67.5 50 9.2 48.6
20:10 1016 30 846 24.98 19.3 66.8 51 9.2 48.5
20:15 1016 30 846 24.98 19.2 66.6 53 9.5 49
20:20 1016 30 846 24.98 19.1 66.4 51 8.8 47.9
20:25 1017 30.03 846 24.98 18.9 66.1 52 9 48.1
20:30 1017 30.03 846 24.98 18.6 65.5 48 7.5 45.5
20:35 1017 30.03 846 24.98 18.4 65.1 48 7.3 45.2
20:40 1017 30.03 846 24.98 18.3 64.9 45 6.4 43.5
20:45 1017 30.03 846 24.98 18.2 64.7 44 5.8 42.5
20:50 1017 30.03 846 24.98 18 64.4 44 5.6 42
20:55 1017 30.03 846 24.98 17.9 64.1 44 5.5 41.8
21:00 1017 30.03 846 24.98 17.7 63.9 45 5.8 42.4
21:05 1017 30.03 846 24.98 17.4 63.3 46 5.9 42.6
21:10 1017 30.03 846 24.98 17.1 62.9 46 5.7 42.2
21:15 1017 30.03 846 24.98 17 62.6 47 5.9 42.6
21:20 1017 30.03 846 24.98 17 62.6 46 5.5 42
21:25 1017 30.03 846 24.98 16.9 62.4 47 5.5 41.9
21:30 1017 30.03 846 24.98 16.9 62.4 46 5.2 41.3
21:35 1017 30.03 846 24.98 16.9 62.3 45 5.1 41.2
21:40 1017 30.03 847 25.01 16.8 62.3 45 5 41
21:45 1017 30.03 847 25.01 16.6 62 45 4.7 40.4
21:50 1018 30.06 847 25.01 16.6 61.8 43 3.9 39
21:55 1018 30.06 847 25.01 16.6 61.9 44 4.3 39.8
22:00 1018 30.06 847 25.01 16.7 62.1 43 4.2 39.5
22:05 1018 30.06 847 25.01 16.8 62.3 42 3.9 39
22:10 1018 30.06 847 25.01 16.8 62.2 42 3.8 38.8
22:15 1018 30.06 847 25.01 16.7 62 40 3.1 37.5
22:20 1018 30.06 847 25.01 16.6 61.8 39 2.5 36.6
22:25 1018 30.06 847 25.01 16.7 62 38 2.5 36.5
22:30 1018 30.06 847 25.01 16.8 62.2 37 2.1 35.7
22:35 1018 30.06 847 25.01 16.8 62.2 35 1.3 34.4
22:40 1018 30.06 847 25.01 16.7 62 35 1.4 34.5
22:45 1018 30.06 847 25.01 16.6 61.9 35 1.2 34.1
22:50 1018 30.06 847 25.01 16.4 61.5 45 4.6 40.3
22:55 1018 30.06 847 25.01 16.2 61.1 39 2.2 35.9
23:00 1018 30.06 847 25.01 16.2 61.2 36 1.1 33.9
23:05 1018 30.06 847 25.01 16.3 61.3 35 0.9 33.7
23:10 1018 30.06 847 25.01 16.1 61 38 2 35.6
23:15 1018 30.06 848 25.04 15.6 60 39 1.8 35.2
23:20 1018 30.06 847 25.01 15.2 59.4 38 0.9 33.7
23:25 1018 30.06 847 25.01 15.4 59.7 39 1.8 35.2
23:30 1018 30.06 847 25.01 15.2 59.4 38 1 33.8
23:35 1018 30.06 847 25.01 15.2 59.4 38 1 33.8
23:40 1018 30.06 847 25.01 15.3 59.5 38 1.3 34.3
23:45 1018 30.06 848 25.04 15.3 59.6 37 1 33.8
23:50 1018 30.06 848 25.04 15.4 59.6 38 1 33.9
23:55 1018 30.06 848 25.04 15.3 59.5 37 0.7 33.3
24:00 1018 30.06 848 25.04 15.3 59.5 37 0.6 33